Time;durP1;ratioP1;P1;durP2;ratioP2;P2;SDS_P1;SDS_P2;PMS_P1;PMS_P2;Temp;Humidity;BMP_temperature;BMP_pressure;BME280_temperature;BME280_humidity;BME280_pressure;Samples;Min_cycle;Max_cycle;Signal;HPM_P1;HPM_P2
2024/02/27 00:03:13;;;;;;;12.82;11.38;;;;;;;6.20;100.00;150229.41;10630312;28;20118;-76
2024/02/27 00:08:15;;;;;;;15.85;12.70;;;;;;;6.23;100.00;150235.81;10627086;28;20509;-77
2024/02/27 00:13:16;;;;;;;13.73;11.23;;;;;;;6.16;100.00;150219.09;10628290;28;20035;-77
2024/02/27 00:18:18;;;;;;;16.42;12.98;;;;;;;6.11;100.00;150206.25;10627265;28;20039;-77
2024/02/27 00:23:20;;;;;;;14.27;12.70;;;;;;;6.06;100.00;150193.34;10626545;28;20035;-77
2024/02/27 00:28:22;;;;;;;14.45;12.57;;;;;;;5.98;100.00;150172.78;10627141;28;20043;-76
2024/02/27 00:33:24;;;;;;;18.52;13.98;;;;;;;5.74;100.00;150112.25;10626856;28;20035;-76
2024/02/27 00:38:26;;;;;;;18.33;15.02;;;;;;;5.70;100.00;150103.25;10632472;27;20039;-76
2024/02/27 00:43:28;;;;;;;16.95;13.57;;;;;;;5.71;100.00;150105.84;10633275;27;20035;-77
2024/02/27 00:48:31;;;;;;;15.05;13.55;;;;;;;5.78;100.00;150123.84;10633101;27;20051;-76
2024/02/27 00:53:33;;;;;;;15.52;13.55;;;;;;;6.21;100.00;150230.69;10614638;27;20387;-76
2024/02/27 00:58:35;;;;;;;17.63;13.15;;;;;;;5.99;100.00;150175.38;10632025;27;20108;-77
2024/02/27 01:03:37;;;;;;;14.38;12.82;;;;;;;6.12;100.00;150208.81;10633661;27;20039;-77
2024/02/27 01:08:39;;;;;;;15.18;13.75;;;;;;;6.19;100.00;150225.53;10634870;27;20096;-77
2024/02/27 01:13:41;;;;;;;16.20;13.40;;;;;;;5.94;100.00;150163.78;10631957;27;20036;-77
2024/02/27 01:18:43;;;;;;;18.65;14.07;;;;;;;5.78;100.00;150122.56;10612892;27;20146;-77
2024/02/27 01:23:45;;;;;;;14.95;13.40;;;;;;;5.70;100.00;150101.97;10630891;27;20134;-76
2024/02/27 01:28:46;;;;;;;15.00;13.40;;;;;;;6.34;100.00;150264.16;10631603;27;20431;-76
2024/02/27 01:33:48;;;;;;;17.80;14.23;;;;;;;6.09;100.00;150199.81;10630771;27;20041;-77
2024/02/27 01:38:50;;;;;;;15.52;13.40;;;;;;;6.01;100.00;150181.75;10631282;27;20051;-78
2024/02/27 01:43:52;;;;;;;15.23;13.68;;;;;;;6.04;100.00;150188.22;10612093;27;20414;-74
2024/02/27 01:48:55;;;;;;;18.27;13.43;;;;;;;5.76;100.00;150117.44;10628976;27;20048;-74
2024/02/27 01:54:00;;;;;;;16.15;13.55;;;;;;;5.78;100.00;150123.84;10629888;27;20506;-76
2024/02/27 01:59:02;;;;;;;20.60;14.98;;;;;;;5.86;100.00;150143.16;10629569;27;20043;-77
2024/02/27 02:04:07;;;;;;;16.42;14.07;;;;;;;5.98;100.00;150174.09;10628659;27;20050;-75
2024/02/27 02:09:09;;;;;;;16.23;13.70;;;;;;;5.93;100.00;150161.22;10629077;27;20047;-75
2024/02/27 02:14:11;;;;;;;16.65;13.52;;;;;;;5.84;100.00;150137.97;10627817;27;20039;-76
2024/02/27 02:19:13;;;;;;;18.20;14.68;;;;;;;5.71;100.00;150105.84;10610475;27;20449;-76
2024/02/27 02:24:17;;;;;;;16.55;14.88;;;;;;;5.62;100.00;150082.66;10627655;27;20503;-76
2024/02/27 02:29:19;;;;;;;17.05;15.25;;;;;;;5.67;100.00;150095.56;10609752;27;20096;-75
2024/02/27 02:34:21;;;;;;;17.58;15.75;;;;;;;5.66;100.00;150092.94;10627493;27;20110;-76
2024/02/27 02:39:23;;;;;;;17.50;15.65;;;;;;;5.60;100.00;150077.53;10627668;27;20047;-75
2024/02/27 02:44:25;;;;;;;15.50;14.00;;;;;;;5.69;100.00;150100.69;10627042;27;20116;-75
2024/02/27 02:49:26;;;;;;;16.52;14.23;;;;;;;5.67;100.00;150094.28;10610232;27;20062;-76
2024/02/27 02:54:28;;;;;;;15.27;13.82;;;;;;;5.90;100.00;150152.16;10609762;27;20051;-75
2024/02/27 02:59:30;;;;;;;17.10;13.10;;;;;;;5.89;100.00;150150.88;10608737;27;20137;-76
2024/02/27 03:04:32;;;;;;;16.83;14.27;;;;;;;5.70;100.00;150101.97;10626038;27;20054;-76
2024/02/27 03:09:34;;;;;;;17.40;13.98;;;;;;;5.61;100.00;150078.81;10626526;27;20043;-76
2024/02/27 03:14:41;;;;;;;18.85;14.82;;;;;;;5.53;100.00;150059.50;10626481;27;20522;-75
2024/02/27 03:19:43;;;;;;;19.20;15.43;;;;;;;5.51;100.00;150055.66;10626705;27;20157;-75
2024/02/27 03:24:46;;;;;;;17.55;15.95;;;;;;;5.59;100.00;150073.69;10625216;27;20035;-74
2024/02/27 03:29:47;;;;;;;16.77;14.90;;;;;;;5.42;100.00;150032.53;10625880;27;20088;-75
2024/02/27 03:34:49;;;;;;;18.02;16.15;;;;;;;5.46;100.00;150041.53;10625627;27;20094;-76
2024/02/27 03:39:51;;;;;;;19.02;17.17;;;;;;;5.42;100.00;150032.53;10625444;27;20049;-75
2024/02/27 03:44:53;;;;;;;19.38;16.25;;;;;;;5.38;100.00;150020.97;10625133;27;20069;-75
2024/02/27 03:49:54;;;;;;;24.20;17.08;;;;;;;5.34;100.00;150011.94;10625059;27;20092;-75
2024/02/27 03:54:56;;;;;;;28.45;17.23;;;;;;;5.43;100.00;150035.09;10624380;27;20047;-74
2024/02/27 03:59:58;;;;;;;21.17;16.75;;;;;;;5.40;100.00;150027.41;10625367;27;20440;-74
2024/02/27 04:05:00;;;;;;;21.08;17.30;;;;;;;5.43;100.00;150035.09;10624466;28;20175;-76
2024/02/27 04:10:02;;;;;;;25.60;20.05;;;;;;;5.21;100.00;149979.78;10626523;27;20405;-78
2024/02/27 04:15:04;;;;;;;23.48;18.23;;;;;;;5.17;100.00;149968.22;10635416;27;20058;-74
2024/02/27 04:20:06;;;;;;;20.40;18.02;;;;;;;5.21;100.00;149979.78;10620092;27;20039;-74
2024/02/27 04:25:09;;;;;;;24.75;18.42;;;;;;;5.17;100.00;149969.50;10635447;27;20184;-75
2024/02/27 04:30:11;;;;;;;34.13;20.77;;;;;;;5.24;100.00;149987.53;10634939;27;20039;-75
2024/02/27 04:35:14;;;;;;;23.75;19.60;;;;;;;5.19;100.00;149973.41;10634303;27;20108;-76
2024/02/27 04:40:16;;;;;;;20.33;16.98;;;;;;;5.23;100.00;149984.97;10634784;27;20047;-76
2024/02/27 04:45:19;;;;;;;24.98;18.95;;;;;;;5.26;100.00;149992.63;10614994;27;20100;-76
2024/02/27 04:50:20;;;;;;;23.20;17.77;;;;;;;5.39;100.00;150024.78;10616861;27;20138;-76
2024/02/27 04:55:22;;;;;;;25.27;18.92;;;;;;;5.15;100.00;149963.09;10634318;27;20103;-75
2024/02/27 05:00:24;;;;;;;24.58;19.85;;;;;;;5.14;100.00;149961.81;10634153;27;20126;-76
2024/02/27 05:05:26;;;;;;;28.60;19.85;;;;;;;5.10;100.00;149950.25;10633789;27;20486;-76
2024/02/27 05:10:30;;;;;;;26.05;18.98;;;;;;;5.02;100.00;149930.97;10614555;27;20050;-76
2024/02/27 05:15:32;;;;;;;34.80;19.40;;;;;;;5.09;100.00;149947.66;10633107;27;20071;-76
2024/02/27 05:20:34;;;;;;;33.33;19.23;;;;;;;5.15;100.00;149964.38;10632078;27;20039;-75
2024/02/27 05:25:36;;;;;;;32.50;20.08;;;;;;;5.10;100.00;149951.53;10632060;27;20043;-75
2024/02/27 05:30:37;;;;;;;21.33;18.95;;;;;;;5.10;100.00;149950.25;10631680;27;20139;-75
2024/02/27 05:35:40;;;;;;;25.17;18.35;;;;;;;5.10;100.00;149950.25;10631217;27;20482;-74
2024/02/27 05:40:42;;;;;;;25.30;19.50;;;;;;;4.93;100.00;149909.09;10613824;27;20059;-75
2024/02/27 05:45:44;;;;;;;26.45;19.48;;;;;;;4.93;100.00;149909.09;10631497;27;20526;-76
2024/02/27 05:50:46;;;;;;;28.08;19.20;;;;;;;4.91;100.00;149903.94;10631568;27;20451;-76
2024/02/27 05:55:47;;;;;;;30.08;20.83;;;;;;;4.80;100.00;149876.97;10630029;27;20047;-75
2024/02/27 06:00:51;;;;;;;36.17;21.70;;;;;;;4.75;100.00;149862.84;10630327;27;20039;-74
2024/02/27 06:05:53;;;;;;;31.50;20.05;;;;;;;4.76;100.00;149865.41;10631124;27;20050;-76
2024/02/27 06:10:55;;;;;;;31.58;20.98;;;;;;;4.76;100.00;149865.41;10631112;27;20088;-75
2024/02/27 06:15:57;;;;;;;29.27;20.45;;;;;;;4.72;100.00;149856.38;10613658;27;20039;-74
2024/02/27 06:26:38;;;;;;;52.00;22.90;;;;;;;4.75;100.00;149862.84;10499625;28;20048;-75
2024/02/27 06:31:40;;;;;;;34.25;22.23;;;;;;;4.77;100.00;149869.22;10498731;28;20143;-75
2024/02/27 06:36:42;;;;;;;35.33;22.13;;;;;;;4.80;100.00;149875.69;10481251;28;20083;-75
2024/02/27 06:41:48;;;;;;;49.55;24.45;;;;;;;4.91;100.00;149902.66;10497321;28;20056;-77
2024/02/27 06:46:50;;;;;;;45.30;22.63;;;;;;;5.09;100.00;149947.66;10497843;28;20075;-75
2024/02/27 06:51:52;;;;;;;40.17;21.92;;;;;;;5.06;100.00;149942.53;10498807;28;20662;-76
2024/02/27 06:56:54;;;;;;;41.10;21.27;;;;;;;5.08;100.00;149946.38;10583899;27;20112;-75
2024/02/27 07:01:56;;;;;;;39.70;21.90;;;;;;;5.42;100.00;150031.25;10628272;27;20035;-75
2024/02/27 07:06:57;;;;;;;43.15;21.17;;;;;;;5.02;100.00;149932.25;10627939;27;20487;-75
2024/02/27 07:12:00;;;;;;;39.28;22.33;;;;;;;4.77;100.00;149869.22;10628195;27;20383;-76
2024/02/27 07:17:02;;;;;;;45.53;21.25;;;;;;;4.95;100.00;149912.94;10629947;27;20074;-76
2024/02/27 07:22:04;;;;;;;36.50;21.40;;;;;;;4.86;100.00;149891.09;10628820;27;20062;-76
2024/02/27 07:27:05;;;;;;;40.28;21.20;;;;;;;4.90;100.00;149900.09;10628985;27;20058;-77
2024/02/27 07:32:09;;;;;;;34.22;21.52;;;;;;;4.94;100.00;149910.38;10630001;27;20035;-77
2024/02/27 07:37:13;;;;;;;58.22;22.40;;;;;;;4.70;100.00;149851.28;10592856;27;20092;-77
2024/02/27 07:42:15;;;;;;;43.38;21.05;;;;;;;4.62;100.00;149830.69;10631128;27;20138;-77
2024/02/27 07:47:17;;;;;;;47.72;22.50;;;;;;;4.60;100.00;149825.53;10612961;27;20051;-77
2024/02/27 07:52:19;;;;;;;40.67;21.10;;;;;;;4.62;100.00;149829.41;10627973;27;20036;-76
2024/02/27 07:57:24;;;;;;;43.85;21.30;;;;;;;4.73;100.00;149857.66;10630087;27;20039;-77
2024/02/27 08:02:26;;;;;;;50.53;22.25;;;;;;;4.72;100.00;149855.09;10628879;27;20027;-77
2024/02/27 08:07:28;;;;;;;52.05;22.98;;;;;;;4.73;100.00;149857.66;10628982;28;20118;-76
2024/02/27 08:12:30;;;;;;;55.15;25.10;;;;;;;5.17;100.00;149969.50;10608313;28;20051;-77
2024/02/27 08:17:32;;;;;;;54.97;25.13;;;;;;;5.01;100.00;149928.41;10630557;28;20043;-78
2024/02/27 08:22:34;;;;;;;60.95;26.42;;;;;;;4.91;100.00;149902.66;10609799;28;20063;-76
2024/02/27 08:27:36;;;;;;;62.08;26.20;;;;;;;4.93;100.00;149909.09;10627582;28;20035;-77
2024/02/27 08:32:38;;;;;;;56.80;25.23;;;;;;;5.17;100.00;149969.50;10628168;28;20031;-77
2024/02/27 08:37:40;;;;;;;60.50;25.60;;;;;;;4.87;100.00;149892.38;10627726;28;20050;-77
2024/02/27 08:42:42;;;;;;;55.97;24.48;;;;;;;4.95;100.00;149914.22;10628328;28;20472;-76
2024/02/27 08:47:44;;;;;;;50.40;23.38;;;;;;;4.71;100.00;149852.56;10609218;28;20186;-77
2024/02/27 08:52:46;;;;;;;57.72;25.27;;;;;;;4.76;100.00;149865.41;10627676;28;20039;-76
2024/02/27 08:57:48;;;;;;;59.65;24.00;;;;;;;4.83;100.00;149882.13;10630932;27;20066;-77
2024/02/27 09:02:49;;;;;;;64.72;25.67;;;;;;;4.65;100.00;149837.09;10618819;27;20042;-77
2024/02/27 09:07:51;;;;;;;50.10;26.88;;;;;;;4.61;100.00;149828.13;10671956;27;20038;-75
2024/02/27 09:12:55;;;;;;;59.20;25.05;;;;;;;4.70;100.00;149850.00;10659327;27;20069;-77
2024/02/27 09:17:57;;;;;;;67.75;27.08;;;;;;;4.67;100.00;149842.25;10676245;27;20405;-77
2024/02/27 09:22:59;;;;;;;63.35;27.42;;;;;;;4.79;100.00;149874.41;10675860;27;20038;-76
2024/02/27 09:28:00;;;;;;;57.40;24.63;;;;;;;4.88;100.00;149894.97;10676823;27;20043;-76
2024/02/27 09:33:02;;;;;;;54.97;25.83;;;;;;;4.80;100.00;149875.69;10676504;27;20130;-78
2024/02/27 09:38:05;;;;;;;59.75;24.65;;;;;;;4.65;100.00;149837.09;10658756;27;20422;-76
2024/02/27 09:43:22;;;;;;;69.72;25.50;;;;;;;4.76;100.00;149865.41;10675636;27;20035;-76
2024/02/27 09:48:30;;;;;;;62.75;25.70;;;;;;;4.72;100.00;149855.09;10676051;27;20050;-76
2024/02/27 09:53:32;;;;;;;73.13;25.17;;;;;;;4.72;100.00;149855.09;10633164;27;20031;-76
2024/02/27 09:58:38;;;;;;;62.95;25.40;;;;;;;4.85;100.00;149887.25;10631783;27;20487;-76
2024/02/27 10:03:45;;;;;;;66.90;22.55;;;;;;;4.97;100.00;149918.13;10632113;27;20046;-76
2024/02/27 10:08:53;;;;;;;67.88;23.13;;;;;;;4.95;100.00;149914.22;10630742;27;20047;-77
2024/02/27 10:13:56;;;;;;;65.28;23.30;;;;;;;4.77;100.00;149867.94;10632006;27;20035;-77
2024/02/27 10:18:57;;;;;;;60.88;22.67;;;;;;;4.79;100.00;149874.41;10613886;27;20130;-77
2024/02/27 10:23:59;;;;;;;71.55;24.13;;;;;;;4.69;100.00;149847.38;10632482;27;20415;-77
2024/02/27 10:29:01;;;;;;;71.75;22.63;;;;;;;4.71;100.00;149853.81;10631018;27;20066;-77
2024/02/27 10:34:03;;;;;;;73.38;23.75;;;;;;;4.79;100.00;149873.13;10630795;27;20449;-76
2024/02/27 10:39:09;;;;;;;57.55;23.60;;;;;;;4.76;100.00;149866.66;10631373;27;20092;-78
2024/02/27 10:44:11;;;;;;;73.50;24.13;;;;;;;4.95;100.00;149912.94;10632311;27;20039;-77
2024/02/27 10:49:16;;;;;;;59.50;20.60;;;;;;;4.88;100.00;149894.97;10631112;27;20043;-77
2024/02/27 10:54:18;;;;;;;63.10;24.77;;;;;;;5.06;100.00;149941.25;10631891;27;20478;-76
2024/02/27 10:59:23;;;;;;;64.50;22.52;;;;;;;5.01;100.00;149928.41;10634386;27;20047;-77
2024/02/27 11:04:32;;;;;;;64.50;22.95;;;;;;;4.97;100.00;149918.13;10633048;27;20031;-77
2024/02/27 11:09:34;;;;;;;42.65;22.10;;;;;;;5.01;100.00;149929.69;10614396;27;20050;-77
2024/02/27 11:14:45;;;;;;;44.78;22.50;;;;;;;5.02;100.00;149930.97;10614676;27;20419;-77
2024/02/27 11:19:49;;;;;;;53.97;21.83;;;;;;;5.02;100.00;149932.25;10613334;27;20053;-77
2024/02/27 11:24:51;;;;;;;49.92;20.65;;;;;;;5.06;100.00;149942.53;10633656;27;20043;-77
2024/02/27 11:29:56;;;;;;;46.13;20.73;;;;;;;5.03;100.00;149934.78;10613046;27;20043;-77
2024/02/27 11:34:59;;;;;;;55.80;22.02;;;;;;;5.14;100.00;149960.53;10630351;27;20096;-77
2024/02/27 11:40:06;;;;;;;54.35;20.70;;;;;;;5.21;100.00;149979.78;10630814;27;20073;-77
2024/02/27 11:45:09;;;;;;;47.17;21.02;;;;;;;5.21;100.00;149978.50;10631205;27;20043;-77
2024/02/27 11:50:12;;;;;;;59.15;21.67;;;;;;;5.28;100.00;149996.53;10632504;27;20047;-77
2024/02/27 11:55:14;;;;;;;57.58;21.80;;;;;;;5.16;100.00;149966.94;10633027;27;20096;-77
2024/02/27 12:00:17;;;;;;;59.95;22.63;;;;;;;5.20;100.00;149977.22;10631960;27;20056;-78
2024/02/27 12:05:19;;;;;;;63.85;25.00;;;;;;;5.31;100.00;150004.22;10613816;28;20039;-76
2024/02/27 12:10:24;;;;;;;51.65;21.30;;;;;;;5.10;100.00;149951.53;10631719;28;20188;-77
2024/02/27 12:15:29;;;;;;;64.55;24.27;;;;;;;5.23;100.00;149984.97;10630047;28;20066;-77
2024/02/27 12:20:31;;;;;;;63.95;23.60;;;;;;;5.25;100.00;149990.09;10630638;28;20088;-78
2024/02/27 12:25:44;;;;;;;54.08;23.98;;;;;;;5.17;100.00;149969.50;10632489;28;20399;-77
2024/02/27 12:30:48;;;;;;;61.78;24.17;;;;;;;4.98;100.00;149921.94;10630380;27;20088;-76
2024/02/27 12:35:50;;;;;;;65.72;26.00;;;;;;;5.10;100.00;149951.53;10618061;27;20082;-77
2024/02/27 12:40:52;;;;;;;78.80;27.27;;;;;;;5.04;100.00;149936.06;10636224;27;20065;-78
2024/02/27 12:45:54;;;;;;;48.40;22.17;;;;;;;5.10;100.00;149950.25;10637372;27;20042;-77
2024/02/27 12:51:00;;;;;;;53.05;23.20;;;;;;;4.95;100.00;149912.94;10637275;27;20043;-78
2024/02/27 12:56:03;;;;;;;62.87;25.07;;;;;;;4.85;100.00;149888.53;10637593;27;20036;-76
2024/02/27 13:01:06;;;;;;;55.95;23.13;;;;;;;4.92;100.00;149905.25;10618767;27;20287;-77
2024/02/27 13:06:11;;;;;;;53.13;23.35;;;;;;;4.83;100.00;149883.41;10636736;27;20043;-77
2024/02/27 13:11:13;;;;;;;54.53;23.08;;;;;;;4.89;100.00;149898.81;10639814;27;20039;-77
2024/02/27 13:16:16;;;;;;;47.72;21.05;;;;;;;4.97;100.00;149919.38;10636326;27;20054;-77
2024/02/27 13:21:19;;;;;;;56.10;22.88;;;;;;;4.87;100.00;149892.38;10638927;27;20046;-78
2024/02/27 13:26:21;;;;;;;62.58;22.05;;;;;;;4.85;100.00;149887.25;10642281;27;20043;-77
2024/02/27 13:31:25;;;;;;;63.03;21.33;;;;;;;4.76;100.00;149866.66;10604500;27;20051;-78
2024/02/27 13:36:27;;;;;;;56.90;22.30;;;;;;;4.76;100.00;149866.66;10623221;27;20039;-78
2024/02/27 13:41:29;;;;;;;59.45;21.88;;;;;;;4.74;100.00;149860.28;10619123;27;20503;-78
2024/02/27 13:46:31;;;;;;;46.58;19.73;;;;;;;4.79;100.00;149874.41;10617703;27;20053;-77
2024/02/27 13:51:33;;;;;;;58.20;22.20;;;;;;;4.92;100.00;149905.25;10633822;27;20047;-77
2024/02/27 13:56:36;;;;;;;51.50;19.42;;;;;;;5.14;100.00;149961.81;10632999;27;20057;-77
2024/02/27 14:01:37;;;;;;;53.78;19.10;;;;;;;4.91;100.00;149902.66;10633499;27;20551;-77
2024/02/27 14:06:39;;;;;;;50.10;19.38;;;;;;;4.98;100.00;149921.94;10633798;27;20119;-77
2024/02/27 14:11:43;;;;;;;51.13;19.05;;;;;;;4.86;100.00;149891.09;10615054;27;20111;-77
2024/02/27 14:16:45;;;;;;;51.20;18.33;;;;;;;4.74;100.00;149860.28;10631720;27;20057;-77
2024/02/27 14:21:47;;;;;;;39.05;16.45;;;;;;;4.75;100.00;149862.84;10633188;27;20042;-76
2024/02/27 14:26:51;;;;;;;43.17;17.60;;;;;;;4.87;100.00;149893.69;10613733;27;20054;-77
2024/02/27 14:31:53;;;;;;;45.75;18.25;;;;;;;4.92;100.00;149905.25;10614900;27;20050;-78
2024/02/27 14:36:55;;;;;;;41.85;17.50;;;;;;;4.84;100.00;149884.69;10637410;27;20043;-77
2024/02/27 14:41:58;;;;;;;40.45;19.00;;;;;;;5.03;100.00;149934.78;10632734;27;20050;-76
2024/02/27 14:47:00;;;;;;;42.70;18.65;;;;;;;4.75;100.00;149862.84;10632780;27;20087;-76
2024/02/27 14:52:02;;;;;;;46.90;18.88;;;;;;;4.85;100.00;149888.53;10630785;27;20471;-79
2024/02/27 14:57:04;;;;;;;39.55;16.48;;;;;;;4.88;100.00;149894.97;10629192;27;20039;-77
2024/02/27 15:02:06;;;;;;;41.17;18.45;;;;;;;4.95;100.00;149912.94;10631143;27;20046;-76
2024/02/27 15:07:08;;;;;;;56.83;18.50;;;;;;;4.87;100.00;149893.69;10629474;27;20043;-76
2024/02/27 15:12:10;;;;;;;47.35;18.70;;;;;;;4.91;100.00;149902.66;10629179;27;20039;-77
2024/02/27 15:17:12;;;;;;;47.28;18.70;;;;;;;5.03;100.00;149933.53;10629089;27;20047;-77
2024/02/27 15:22:14;;;;;;;39.35;18.00;;;;;;;4.87;100.00;149892.38;10628228;28;20071;-76
2024/02/27 15:27:17;;;;;;;42.28;18.95;;;;;;;4.92;100.00;149905.25;10631245;28;20046;-76
2024/02/27 15:32:18;;;;;;;47.10;20.50;;;;;;;4.84;100.00;149885.97;10617221;28;20091;-76
2024/02/27 15:37:20;;;;;;;51.50;21.27;;;;;;;4.88;100.00;149894.97;10629683;28;20043;-77
2024/02/27 15:42:22;;;;;;;59.30;19.77;;;;;;;4.81;100.00;149879.53;10610426;28;20079;-78
2024/02/27 15:47:25;;;;;;;55.42;20.98;;;;;;;4.95;100.00;149914.22;10635744;28;20046;-77
2024/02/27 15:52:30;;;;;;;53.22;21.10;;;;;;;5.04;100.00;149937.34;10610282;28;20472;-76
2024/02/27 15:57:31;;;;;;;42.60;19.45;;;;;;;4.94;100.00;149911.66;10628011;28;20046;-76
2024/02/27 16:02:35;;;;;;;50.53;17.38;;;;;;;4.96;100.00;149915.53;10626906;28;20031;-77
2024/02/27 16:07:48;;;;;;;31.30;16.48;;;;;;;4.97;100.00;149919.38;10626012;27;20039;-76
2024/02/27 16:12:50;;;;;;;41.90;16.88;;;;;;;4.94;100.00;149910.38;10627675;28;20555;-77
2024/02/27 16:17:52;;;;;;;51.85;16.92;;;;;;;4.89;100.00;149897.53;10566661;28;1198683;-77
2024/02/27 16:22:54;;;;;;;44.88;17.92;;;;;;;4.91;100.00;149903.94;10629647;28;20452;-78
2024/02/27 16:27:55;;;;;;;52.30;18.45;;;;;;;4.92;100.00;149906.53;10610171;28;20039;-78
2024/02/27 16:32:58;;;;;;;44.33;17.90;;;;;;;4.95;100.00;149914.22;10610684;28;20070;-76
2024/02/27 16:38:01;;;;;;;35.38;16.63;;;;;;;4.90;100.00;149901.38;10629800;28;20049;-76
2024/02/27 16:43:03;;;;;;;36.33;18.55;;;;;;;4.89;100.00;149897.53;10629388;28;20471;-77
2024/02/27 16:48:06;;;;;;;38.10;19.60;;;;;;;4.84;100.00;149884.69;10628827;28;20070;-79
2024/02/27 16:53:08;;;;;;;40.35;18.25;;;;;;;4.76;100.00;149865.41;10628026;28;20035;-78
2024/02/27 16:58:10;;;;;;;35.00;17.15;;;;;;;4.75;100.00;149864.13;10628401;28;20074;-77
2024/02/27 17:03:11;;;;;;;30.02;16.33;;;;;;;4.70;100.00;149851.28;10631452;28;20043;-79
2024/02/27 17:08:13;;;;;;;29.02;16.13;;;;;;;4.78;100.00;149870.50;10615279;28;20399;-78
2024/02/27 17:13:15;;;;;;;24.92;15.82;;;;;;;4.80;100.00;149876.97;10634579;28;20131;-78
2024/02/27 17:18:17;;;;;;;28.20;15.27;;;;;;;4.81;100.00;149879.53;10639641;27;20392;-78
2024/02/27 17:23:19;;;;;;;30.17;15.70;;;;;;;4.60;100.00;149825.53;10623597;27;20082;-78
2024/02/27 17:28:21;;;;;;;22.42;16.05;;;;;;;4.68;100.00;149846.09;10646628;27;20131;-78
2024/02/27 17:33:22;;;;;;;23.20;16.10;;;;;;;4.62;100.00;149829.41;10647691;27;20495;-78
2024/02/27 17:38:25;;;;;;;25.02;17.40;;;;;;;4.68;100.00;149846.09;10640578;27;20024;-78
2024/02/27 17:43:27;;;;;;;37.08;19.30;;;;;;;4.57;100.00;149817.84;10642469;27;20510;-79
2024/02/27 17:48:28;;;;;;;41.53;18.60;;;;;;;4.61;100.00;149828.13;10637627;27;20043;-80
2024/02/27 17:53:30;;;;;;;32.88;18.90;;;;;;;4.65;100.00;149837.09;10636869;27;20031;-78
2024/02/27 17:58:34;;;;;;;34.50;17.17;;;;;;;4.42;100.00;149780.56;10640549;27;20103;-78
2024/02/27 18:03:36;;;;;;;38.03;17.25;;;;;;;4.45;100.00;149787.00;10641743;27;20128;-78
2024/02/27 18:08:38;;;;;;;48.17;19.13;;;;;;;4.45;100.00;149787.00;10640464;27;20523;-78
2024/02/27 18:13:40;;;;;;;30.27;18.58;;;;;;;4.38;100.00;149770.28;10640246;27;20035;-78
2024/02/27 18:18:42;;;;;;;46.65;20.20;;;;;;;4.48;100.00;149794.72;10623503;27;20066;-81
2024/02/27 18:23:44;;;;;;;55.10;21.65;;;;;;;4.44;100.00;149784.44;10645376;27;20047;-77
2024/02/27 18:28:46;;;;;;;76.93;26.23;;;;;;;4.45;100.00;149787.00;10620739;27;20057;-79
2024/02/27 18:33:48;;;;;;;73.28;28.65;;;;;;;4.41;100.00;149776.72;10623279;27;20047;-79
2024/02/27 18:38:49;;;;;;;66.55;23.17;;;;;;;4.37;100.00;149766.44;10639306;27;20043;-78
2024/02/27 18:43:51;;;;;;;49.63;20.77;;;;;;;4.26;100.00;149740.75;10641889;27;20061;-78
2024/02/27 18:48:53;;;;;;;38.53;18.80;;;;;;;4.23;100.00;149731.75;10641227;27;20055;-78
2024/02/27 18:53:55;;;;;;;39.10;17.80;;;;;;;4.41;100.00;149776.72;10623455;27;20043;-79
2024/02/27 18:58:58;;;;;;;36.42;16.20;;;;;;;4.24;100.00;149734.31;10620357;27;20051;-77
2024/02/27 19:04:00;;;;;;;46.17;16.67;;;;;;;4.27;100.00;149742.03;10643483;27;20035;-78
2024/02/27 19:09:02;;;;;;;35.60;15.80;;;;;;;4.28;100.00;149744.59;10643899;27;20051;-79
2024/02/27 19:14:05;;;;;;;32.95;16.63;;;;;;;4.19;100.00;149721.47;10623700;27;20039;-79
2024/02/27 19:19:07;;;;;;;57.13;19.27;;;;;;;4.33;100.00;149756.16;10638770;27;20039;-78
2024/02/27 19:24:09;;;;;;;41.53;17.85;;;;;;;4.36;100.00;149763.88;10617610;27;20046;-78
2024/02/27 19:29:11;;;;;;;49.83;18.55;;;;;;;4.25;100.00;149736.88;10635746;27;20064;-78
2024/02/27 19:34:13;;;;;;;53.20;18.95;;;;;;;4.39;100.00;149772.88;10642508;27;20075;-77
2024/02/27 19:39:15;;;;;;;36.80;17.45;;;;;;;4.36;100.00;149765.16;10639458;27;20543;-77
2024/02/27 19:44:17;;;;;;;42.75;18.42;;;;;;;4.35;100.00;149762.59;10632865;27;20043;-78
2024/02/27 19:49:19;;;;;;;39.33;18.50;;;;;;;4.49;100.00;149798.56;10618632;27;20122;-78
2024/02/27 19:54:24;;;;;;;40.95;17.85;;;;;;;4.27;100.00;149742.03;10640108;27;20043;-79
2024/02/27 19:59:28;;;;;;;48.33;19.20;;;;;;;4.25;100.00;149736.88;10615232;27;20039;-79
2024/02/27 20:04:30;;;;;;;40.88;18.55;;;;;;;4.34;100.00;149758.72;10635286;27;20099;-78
2024/02/27 20:09:32;;;;;;;48.00;18.85;;;;;;;4.40;100.00;149775.44;10622015;28;20421;-79
2024/02/27 20:14:37;;;;;;;52.35;20.65;;;;;;;4.40;100.00;149775.44;10634098;28;20043;-78
2024/02/27 20:19:43;;;;;;;53.33;18.73;;;;;;;4.33;100.00;149756.16;10640604;28;20491;-80
2024/02/27 20:24:45;;;;;;;37.35;17.48;;;;;;;4.39;100.00;149771.59;10623687;28;20518;-79
2024/02/27 20:29:47;;;;;;;37.47;17.30;;;;;;;4.46;100.00;149790.84;10621693;28;20054;-78
2024/02/27 20:35:00;;;;;;;36.40;17.23;;;;;;;4.37;100.00;149767.72;10620741;28;20043;-77
2024/02/27 20:40:02;;;;;;;49.47;17.30;;;;;;;4.40;100.00;149774.16;10633589;28;20082;-77
2024/02/27 20:45:05;;;;;;;40.97;17.48;;;;;;;4.49;100.00;149798.56;10630026;28;20453;-77
2024/02/27 20:50:11;;;;;;;49.08;19.00;;;;;;;4.49;100.00;149798.56;10630038;28;20066;-78
2024/02/27 20:55:14;;;;;;;39.70;17.92;;;;;;;4.41;100.00;149778.00;10614961;27;20118;-77
2024/02/27 21:00:16;;;;;;;47.38;19.95;;;;;;;4.33;100.00;149757.44;10635216;27;20047;-77
2024/02/27 21:05:18;;;;;;;44.03;18.00;;;;;;;4.39;100.00;149772.88;10638373;27;20035;-78
2024/02/27 21:10:21;;;;;;;34.78;16.77;;;;;;;4.28;100.00;149745.88;10639149;27;20035;-79
2024/02/27 21:15:23;;;;;;;35.72;18.27;;;;;;;4.26;100.00;149739.47;10638808;27;20110;-78
2024/02/27 21:20:26;;;;;;;47.20;18.92;;;;;;;4.37;100.00;149766.44;10621308;27;20047;-77
2024/02/27 21:25:28;;;;;;;37.90;16.13;;;;;;;4.28;100.00;149744.59;10638984;27;20115;-77
2024/02/27 21:30:31;;;;;;;48.30;18.65;;;;;;;4.34;100.00;149760.03;10604509;27;20058;-78
2024/02/27 21:35:33;;;;;;;34.08;17.55;;;;;;;4.26;100.00;149740.75;10636202;27;20035;-75
2024/02/27 21:40:34;;;;;;;32.38;16.90;;;;;;;4.30;100.00;149749.75;10635119;27;20054;-77
2024/02/27 21:45:36;;;;;;;36.88;17.58;;;;;;;4.19;100.00;149721.47;10633116;27;20090;-77
2024/02/27 21:50:38;;;;;;;40.17;18.35;;;;;;;4.41;100.00;149776.72;10633593;27;20119;-77
2024/02/27 21:55:41;;;;;;;45.60;20.67;;;;;;;4.06;100.00;149689.34;10633114;27;20035;-77
2024/02/27 22:00:43;;;;;;;37.95;19.45;;;;;;;4.09;100.00;149695.78;10614919;27;20043;-78
2024/02/27 22:05:48;;;;;;;46.00;19.42;;;;;;;4.11;100.00;149700.91;10632061;27;20043;-77
2024/02/27 22:10:50;;;;;;;43.03;18.50;;;;;;;4.11;100.00;149700.91;10631951;27;20067;-76
2024/02/27 22:15:52;;;;;;;47.88;21.52;;;;;;;4.10;100.00;149698.34;10631535;27;20031;-77
2024/02/27 22:20:54;;;;;;;48.88;18.88;;;;;;;4.08;100.00;149693.25;10631085;27;20121;-77
2024/02/27 22:25:56;;;;;;;49.00;20.73;;;;;;;4.17;100.00;149716.34;10630170;27;20039;-76
2024/02/27 22:30:58;;;;;;;51.58;21.92;;;;;;;4.21;100.00;149727.91;10629374;27;20043;-76
2024/02/27 22:36:00;;;;;;;48.13;21.60;;;;;;;4.11;100.00;149702.19;10629485;27;20043;-77
2024/02/27 22:41:09;;;;;;;48.17;19.42;;;;;;;4.08;100.00;149694.50;10630382;27;20070;-78
2024/02/27 22:46:11;;;;;;;52.85;20.13;;;;;;;4.13;100.00;149707.34;10630577;27;20039;-77